< Typhoon 199434 1994 Season Typhoon 199436 >
Typhoon 199435 (AXEL)
General InformationTrack Information on Google MapsDetailed Wind InformationList of All Images || Disaster Info.ResourceGoogle EarthGE AnimationAtom FeedGeoJSON
Detalied Best Track (Time Zone = UTC)
Year Month Day Hour Lat. Long. Pressure (hPa) Wind (kt) Class Image Chart
1994 12 15 18 7.0 147.0 1002 0 2 Image Chart
1994 12 16 00 7.2 146.2 1002 0 2 Image Chart
1994 12 16 06 7.4 145.2 1002 0 2 Image Chart
1994 12 16 12 7.8 144.0 1002 0 2 Image Chart
1994 12 16 18 8.2 142.9 1002 0 2 Image Chart
1994 12 17 00 8.6 141.7 1000 35 3 Image Chart
1994 12 17 06 9.0 140.6 998 35 3 Image Chart
1994 12 17 12 9.4 139.6 998 35 3 Image Chart
1994 12 17 18 9.7 138.6 996 40 3 Image Chart
1994 12 18 00 10.0 138.0 994 40 3 Image Chart
1994 12 18 06 10.4 137.2 992 45 3 Image Chart
1994 12 18 12 10.8 136.3 990 50 4 Image Chart
1994 12 18 18 11.0 135.7 985 55 4 Image Chart
1994 12 19 00 11.3 135.0 985 55 4 Image Chart
1994 12 19 06 11.4 133.9 980 60 4 Image Chart
1994 12 19 12 11.4 132.7 980 60 4 Image Chart
1994 12 19 18 11.2 131.7 975 65 5 Image Chart
1994 12 20 00 11.1 130.7 975 65 5 Image Chart
1994 12 20 06 11.2 129.6 970 70 5 Image Chart
1994 12 20 12 11.3 128.6 960 80 5 Image Chart
1994 12 20 18 11.2 127.5 950 85 5 Image Chart
1994 12 21 00 10.9 126.8 955 85 5 Image Chart
1994 12 21 06 10.8 126.0 960 80 5 Image Chart
1994 12 21 12 10.8 125.3 965 75 5 Image Chart
1994 12 21 18 11.2 124.5 975 65 5 Image Chart
1994 12 22 00 11.7 123.4 980 60 4 Image Chart
1994 12 22 06 12.0 122.1 985 55 4 Image Chart
1994 12 22 12 12.4 120.9 990 50 4 Image Chart
1994 12 22 18 12.8 119.6 990 50 4 Image Chart
1994 12 23 00 13.1 118.9 992 45 3 Image Chart
1994 12 23 06 13.8 118.2 992 45 3 Image Chart
1994 12 23 12 14.4 117.5 992 45 3 Image Chart
1994 12 23 18 14.9 116.9 994 45 3 Image Chart
1994 12 24 00 15.6 116.5 996 40 3 Image Chart
1994 12 24 06 16.1 116.0 998 35 3 Image Chart
1994 12 24 12 16.6 115.6 1000 35 3 Image Chart
1994 12 24 18 17.0 115.1 1002 0 2 Image Chart
1994 12 25 00 17.8 114.8 1004 0 2 Image Chart
1994 12 25 06 18.2 115.0 1004 0 2 Image Chart
1994 12 25 12 18.5 115.3 1006 0 2 Image Chart
1994 12 25 18 18.7 115.5 1006 0 2 Image Chart
1994 12 26 00 18.9 115.8 1008 0 2 Image Chart
1994 12 26 06 19.0 116.0 1008 0 2 Image Chart
1994 12 26 12 18.8 116.3 1010 0 2 Image Chart
1994 12 26 18 18.4 116.6 1010 0 2 Image Chart
1994 12 27 00 18.0 116.8 1010 0 2 Image Chart
1994 12 27 06 17.4 116.5 1010 0 2 Image Chart
Japan Meteorological Agency Best Track Data | Correction Date : 1995-01-30
< Typhoon 199434 1994 Season Typhoon 199436 >

Help